createdAt,value
2018-08-19T00:01:13.893Z,12.20
2018-08-19T00:03:43.350Z,11.93
2018-08-19T00:06:12.547Z,11.20
2018-08-19T00:08:41.864Z,12.67
2018-08-19T00:11:11.654Z,11.53
2018-08-19T00:13:40.919Z,10.73
2018-08-19T00:16:11.092Z,10.30
2018-08-19T00:18:40.657Z,11.23
2018-08-19T00:21:12.268Z,11.67
2018-08-19T00:23:49.368Z,10.27
2018-08-19T00:26:18.564Z,11.43
2018-08-19T00:28:47.819Z,11.63
2018-08-19T00:31:23.716Z,10.80
2018-08-19T00:33:52.931Z,11.43
2018-08-19T00:36:35.952Z,11.60
2018-08-19T00:39:08.053Z,11.13
2018-08-19T00:41:44.400Z,11.00
2018-08-19T00:44:13.533Z,9.90
2018-08-19T00:46:42.721Z,10.60
2018-08-19T00:49:12.076Z,10.90
2018-08-19T00:51:50.866Z,10.83
2018-08-19T00:54:20.267Z,10.47
2018-08-19T00:56:51.566Z,11.23
2018-08-19T00:59:22.199Z,12.10
2018-08-19T01:01:51.420Z,9.90
2018-08-19T01:04:21.073Z,10.80
2018-08-19T01:06:53.876Z,11.30
2018-08-19T01:09:26.636Z,9.30
2018-08-19T01:11:55.948Z,10.10
2018-08-19T01:14:25.272Z,11.07
2018-08-19T01:16:59.665Z,10.00
2018-08-19T01:19:28.857Z,9.93
2018-08-19T01:21:58.085Z,11.80
2018-08-19T01:24:27.413Z,9.90
2018-08-19T01:27:08.289Z,9.90
2018-08-19T01:29:43.434Z,10.07
2018-08-19T01:32:13.563Z,10.40
2018-08-19T01:34:45.449Z,10.53
2018-08-19T01:37:16.504Z,10.30
2018-08-19T01:39:45.645Z,10.47
2018-08-19T01:42:14.797Z,10.60
2018-08-19T01:44:44.114Z,11.67
2018-08-19T01:47:17.016Z,10.70
2018-08-19T01:49:46.395Z,11.07
2018-08-19T02:22:27.400Z,11.23
2018-08-19T02:24:56.589Z,11.17
2018-08-19T02:27:25.810Z,11.00
2018-08-19T02:29:55.121Z,10.00
2018-08-19T02:32:42.539Z,11.97
2018-08-19T02:35:12.890Z,12.27
2018-08-19T02:37:42.092Z,13.07
2018-08-19T02:40:17.629Z,11.03
2018-08-19T02:42:46.910Z,11.60
2018-08-19T02:45:16.086Z,11.20
2018-08-19T02:47:45.401Z,11.60
2018-08-19T02:50:18.536Z,10.60
2018-08-19T02:52:48.092Z,11.10
2018-08-19T02:55:17.254Z,12.47
2018-08-19T02:57:46.461Z,11.10
2018-08-19T03:00:16.751Z,10.87
2018-08-19T03:02:45.990Z,11.37
2018-08-19T03:05:15.649Z,11.50
2018-08-19T03:07:44.970Z,11.87
2018-08-19T03:10:15.478Z,10.90
2018-08-19T03:12:46.657Z,11.97
2018-08-19T03:15:20.649Z,11.03
2018-08-19T03:17:50.557Z,11.73
2018-08-19T03:20:19.854Z,13.27
2018-08-19T03:22:49.075Z,12.50
2018-08-19T03:25:18.372Z,14.37
2018-08-19T03:27:47.502Z,13.43
2018-08-19T03:30:36.774Z,12.53
2018-08-19T03:33:06.080Z,12.20
2018-08-19T03:35:35.421Z,11.70
2018-08-19T03:38:10.074Z,14.60
2018-08-19T03:40:39.385Z,12.97
2018-08-19T03:43:09.284Z,12.10
2018-08-19T03:45:39.916Z,12.53
2018-08-19T03:48:09.316Z,12.10
2018-08-19T03:50:38.689Z,12.30
2018-08-19T03:53:07.990Z,11.00
2018-08-19T03:55:39.087Z,13.10
2018-08-19T03:58:09.362Z,12.20
2018-08-19T04:00:45.290Z,11.23
2018-08-19T04:03:20.444Z,12.80
2018-08-19T04:05:53.245Z,12.27
2018-08-19T04:08:34.165Z,12.63
2018-08-19T04:11:07.439Z,12.10
2018-08-19T04:13:38.911Z,13.97
2018-08-19T04:16:12.721Z,12.13
2018-08-19T04:18:43.265Z,12.03
2018-08-19T04:21:14.637Z,12.03
2018-08-19T04:23:46.073Z,13.47
2018-08-19T04:26:15.314Z,14.00
2018-08-19T04:28:45.401Z,14.30
2018-08-19T04:31:28.590Z,12.13
2018-08-19T04:33:57.834Z,12.73
2018-08-19T04:36:26.990Z,12.70
2018-08-19T04:39:04.800Z,12.77
2018-08-19T04:41:33.967Z,12.20
2018-08-19T04:44:03.226Z,12.30
2018-08-19T04:46:32.397Z,11.87
2018-08-19T04:49:05.416Z,12.47
2018-08-19T04:51:34.576Z,13.70
2018-08-19T04:54:05.367Z,12.37
2018-08-19T04:56:34.705Z,11.30
2018-08-19T04:59:07.978Z,13.80
2018-08-19T05:01:37.214Z,12.67
2018-08-19T05:04:07.250Z,13.97
2018-08-19T05:06:36.537Z,14.57
2018-08-19T05:09:08.342Z,15.40
2018-08-19T05:11:37.508Z,16.23
2018-08-19T05:14:06.973Z,13.20
2018-08-19T05:16:46.186Z,12.73
2018-08-19T05:19:18.445Z,12.97
2018-08-19T05:21:50.205Z,14.40
2018-08-19T05:24:29.631Z,15.33
2018-08-19T05:27:05.647Z,14.33
2018-08-19T05:29:37.805Z,13.50
2018-08-19T05:32:15.655Z,15.37
2018-08-19T05:34:44.925Z,15.07
2018-08-19T05:37:14.388Z,13.63
2018-08-19T05:40:49.478Z,16.87
2018-08-19T05:43:18.748Z,14.33
2018-08-19T05:45:55.013Z,16.07
2018-08-19T05:48:24.678Z,16.70
2018-08-19T05:51:09.070Z,16.77
2018-08-19T05:53:42.474Z,21.40
2018-08-19T05:56:11.656Z,22.60
2018-08-19T05:58:45.435Z,24.43
2018-08-19T06:01:18.943Z,25.20
2018-08-19T06:03:48.480Z,23.10
2018-08-19T06:06:19.297Z,24.83
2018-08-19T06:08:48.493Z,21.90
2018-08-19T06:11:18.045Z,21.90
2018-08-19T06:13:47.566Z,21.77
2018-08-19T06:16:16.994Z,20.20
2018-08-19T06:18:46.257Z,20.03
2018-08-19T06:21:19.515Z,19.70
2018-08-19T06:23:49.874Z,20.23
2018-08-19T06:26:23.327Z,19.73
2018-08-19T06:28:53.359Z,18.67
2018-08-19T06:31:22.590Z,18.10
2018-08-19T06:33:51.870Z,17.13
2018-08-19T06:36:27.356Z,17.20
2018-08-19T06:38:56.813Z,16.20
2018-08-19T06:41:26.223Z,16.80
2018-08-19T06:43:55.517Z,16.00
2018-08-19T06:46:26.505Z,16.83
2018-08-19T06:48:56.089Z,15.10
2018-08-19T06:51:25.373Z,15.53
2018-08-19T06:53:54.746Z,13.77
2018-08-19T06:56:24.350Z,13.33
2018-08-19T06:58:53.922Z,14.27
2018-08-19T07:01:25.864Z,13.37
2018-08-19T07:03:56.215Z,14.67
2018-08-19T07:06:25.547Z,11.83
2018-08-19T07:08:54.903Z,12.40
2018-08-19T07:11:24.427Z,13.57
2018-08-19T07:13:53.754Z,12.60
2018-08-19T07:16:28.170Z,11.67
2018-08-19T07:18:57.455Z,13.23
2018-08-19T07:21:26.789Z,12.70
2018-08-19T07:23:56.066Z,13.10
2018-08-19T07:26:25.422Z,12.93
2018-08-19T07:28:54.650Z,13.00
2018-08-19T07:31:24.299Z,13.20
2018-08-19T07:33:53.760Z,12.10
2018-08-19T07:36:23.197Z,12.23
2018-08-19T07:38:53.144Z,12.17
2018-08-19T07:41:22.794Z,12.10
2018-08-19T07:43:52.841Z,11.80
2018-08-19T07:46:22.428Z,11.07
2018-08-19T07:48:53.166Z,10.63
2018-08-19T07:51:22.463Z,11.03
2018-08-19T07:53:51.978Z,11.10
2018-08-19T07:56:21.454Z,10.37
2018-08-19T07:58:58.178Z,10.90
2018-08-19T08:01:27.812Z,10.33
2018-08-19T08:03:57.297Z,11.70
2018-08-19T08:06:30.050Z,9.60
2018-08-19T08:09:00.716Z,10.67
2018-08-19T08:11:30.518Z,9.50
2018-08-19T08:14:00.477Z,10.27
2018-08-19T08:16:29.877Z,10.20
2018-08-19T08:18:59.249Z,9.87
2018-08-19T08:21:29.886Z,9.47
2018-08-19T08:23:59.382Z,8.00
2018-08-19T08:26:28.827Z,8.83
2018-08-19T08:29:05.621Z,8.10
2018-08-19T08:31:47.292Z,7.33
2018-08-19T08:34:16.712Z,7.97
2018-08-19T08:36:46.344Z,8.60
2018-08-19T08:39:15.856Z,7.37
2018-08-19T08:41:45.390Z,7.20
2018-08-19T08:44:14.950Z,7.17
2018-08-19T08:46:44.571Z,6.87
2018-08-19T08:49:13.985Z,6.63
2018-08-19T08:51:43.465Z,5.50
2018-08-19T08:54:12.917Z,4.80
2018-08-19T08:56:42.562Z,4.73
2018-08-19T08:59:12.141Z,4.30
2018-08-19T09:01:41.850Z,4.90
2018-08-19T09:04:11.370Z,4.30
2018-08-19T09:06:40.663Z,4.40
2018-08-19T09:09:10.126Z,4.97
2018-08-19T09:11:40.119Z,4.60
2018-08-19T09:14:09.638Z,4.23
2018-08-19T09:16:41.048Z,4.90
2018-08-19T09:19:10.599Z,5.27
2018-08-19T09:21:40.096Z,5.30
2018-08-19T09:24:09.526Z,4.80
2018-08-19T09:26:39.157Z,5.10
2018-08-19T09:29:08.907Z,5.90
2018-08-19T09:31:38.738Z,4.90
2018-08-19T09:34:09.360Z,5.30
2018-08-19T09:36:38.998Z,5.43
2018-08-19T09:39:10.497Z,5.60
2018-08-19T09:41:40.077Z,5.80
2018-08-19T09:44:09.884Z,5.40
2018-08-19T09:46:39.480Z,5.80
2018-08-19T09:49:08.861Z,6.00
2018-08-19T09:51:38.241Z,5.40
2018-08-19T09:54:07.787Z,5.53
2018-08-19T09:56:39.846Z,5.87
2018-08-19T09:59:09.272Z,5.53
2018-08-19T10:01:45.985Z,5.70
2018-08-19T10:04:23.439Z,6.47
2018-08-19T10:06:58.998Z,5.80
2018-08-19T10:09:29.112Z,7.03
2018-08-19T10:11:59.126Z,5.53
2018-08-19T10:14:28.405Z,6.00
2018-08-19T10:16:57.721Z,5.80
2018-08-19T10:19:27.149Z,4.90
2018-08-19T10:21:59.068Z,5.43
2018-08-19T10:24:29.489Z,5.43
2018-08-19T10:26:59.397Z,6.20
2018-08-19T10:29:29.446Z,5.97
2018-08-19T10:32:02.597Z,6.53
2018-08-19T10:34:34.838Z,6.60
2018-08-19T10:37:04.667Z,6.40
2018-08-19T10:39:34.060Z,7.27
2018-08-19T10:42:17.034Z,9.70
2018-08-19T10:44:47.838Z,10.60
2018-08-19T10:47:17.295Z,9.57
2018-08-19T10:49:55.141Z,10.33
2018-08-19T10:52:28.743Z,11.47
2018-08-19T10:54:59.751Z,10.77
2018-08-19T10:57:29.519Z,9.47
2018-08-19T10:59:59.737Z,9.70
2018-08-19T11:02:28.977Z,10.10
2018-08-19T11:05:00.830Z,10.40
2018-08-19T11:07:30.257Z,8.90
2018-08-19T11:10:17.397Z,9.83
2018-08-19T11:12:48.670Z,9.20
2018-08-19T11:15:31.183Z,9.83
2018-08-19T11:18:13.715Z,9.07
2018-08-19T11:20:43.129Z,9.23
2018-08-19T11:23:28.401Z,10.13
2018-08-19T11:25:58.695Z,9.00
2018-08-19T11:28:38.080Z,9.20
2018-08-19T11:31:09.594Z,8.03
2018-08-19T11:33:41.802Z,8.93
2018-08-19T11:36:11.606Z,9.60
2018-08-19T11:38:41.830Z,8.70
2018-08-19T11:41:12.277Z,9.00
2018-08-19T11:43:43.838Z,8.03
2018-08-19T11:46:13.422Z,8.03
2018-08-19T11:48:43.677Z,8.27
2018-08-19T11:51:13.300Z,8.60
2018-08-19T11:53:42.725Z,8.57
2018-08-19T11:56:12.630Z,8.47
2018-08-19T11:58:45.606Z,8.43
2018-08-19T12:01:21.331Z,7.93
2018-08-19T12:04:00.278Z,8.47
2018-08-19T12:06:31.053Z,8.83
2018-08-19T12:09:03.369Z,8.30
2018-08-19T12:11:37.313Z,7.80
2018-08-19T12:14:08.632Z,7.63
2018-08-19T12:16:51.455Z,7.97
2018-08-19T12:19:24.037Z,7.67
2018-08-19T12:21:55.012Z,7.87
2018-08-19T12:24:28.405Z,7.40
2018-08-19T12:27:01.643Z,7.57
2018-08-19T12:29:32.441Z,8.37
2018-08-19T12:32:11.451Z,7.97
2018-08-19T12:34:43.866Z,8.33
2018-08-19T12:37:14.645Z,7.93
2018-08-19T12:39:44.109Z,10.00
2018-08-19T12:42:13.468Z,8.63
2018-08-19T12:44:43.090Z,7.90
2018-08-19T12:47:17.249Z,7.77
2018-08-19T12:49:50.563Z,9.03
2018-08-19T12:52:22.447Z,8.43
2018-08-19T12:54:57.190Z,8.90
2018-08-19T12:57:26.810Z,8.67
2018-08-19T13:00:05.802Z,9.10
2018-08-19T13:02:44.221Z,9.50
2018-08-19T13:05:14.653Z,9.50
2018-08-19T13:07:44.601Z,8.87
2018-08-19T13:10:13.994Z,9.50
2018-08-19T13:12:52.139Z,9.20
2018-08-19T13:15:21.629Z,8.60
2018-08-19T13:17:51.593Z,9.53
2018-08-19T13:20:20.917Z,9.50
2018-08-19T13:22:59.787Z,10.40
2018-08-19T13:25:29.573Z,9.13
2018-08-19T13:27:59.425Z,10.70
2018-08-19T13:30:29.306Z,9.20
2018-08-19T13:32:58.997Z,9.00
2018-08-19T13:35:28.527Z,10.47
2018-08-19T13:37:57.764Z,9.40
2018-08-19T13:40:27.189Z,9.30
2018-08-19T13:42:56.918Z,8.70
2018-08-19T13:45:27.442Z,8.20
2018-08-19T13:47:56.772Z,9.63
2018-08-19T13:50:26.044Z,9.50
2018-08-19T13:52:56.945Z,9.40
2018-08-19T13:55:26.205Z,9.63
2018-08-19T13:57:55.691Z,9.20
2018-08-19T14:00:29.449Z,8.27
2018-08-19T14:02:58.706Z,7.80
2018-08-19T14:05:27.889Z,7.13
2018-08-19T14:07:57.495Z,7.20
2018-08-19T14:10:26.694Z,6.90
2018-08-19T14:12:56.147Z,8.00
2018-08-19T14:15:25.438Z,7.70
2018-08-19T14:17:54.722Z,8.83
2018-08-19T14:20:24.081Z,7.73
2018-08-19T14:22:54.629Z,7.90
2018-08-19T14:25:23.940Z,8.30
2018-08-19T14:27:53.277Z,7.23
2018-08-19T14:30:22.666Z,7.17
2018-08-19T14:32:53.388Z,7.83
2018-08-19T14:35:22.641Z,7.30
2018-08-19T14:37:51.928Z,7.47
2018-08-19T14:40:21.409Z,7.40
2018-08-19T14:42:50.894Z,7.60
2018-08-19T14:45:20.219Z,7.20
2018-08-19T14:47:49.906Z,7.67
2018-08-19T14:50:20.490Z,7.70
2018-08-19T14:52:49.922Z,7.10
2018-08-19T14:55:19.306Z,7.40
2018-08-19T14:57:48.659Z,7.87
2018-08-19T15:00:18.550Z,6.90
2018-08-19T15:02:50.638Z,8.10
2018-08-19T15:05:22.125Z,8.43
2018-08-19T15:07:51.716Z,8.70
2018-08-19T15:10:24.270Z,8.10
2018-08-19T15:12:54.125Z,7.80
2018-08-19T15:15:23.452Z,8.53
2018-08-19T15:17:59.357Z,7.13
2018-08-19T15:20:35.397Z,8.07
2018-08-19T15:23:16.088Z,7.93
2018-08-19T15:25:45.686Z,7.60
2018-08-19T15:28:15.836Z,7.70
2018-08-19T15:30:45.198Z,7.73
2018-08-19T15:33:16.012Z,7.17
2018-08-19T15:35:46.581Z,7.87
2018-08-19T15:38:15.955Z,8.20
2018-08-19T15:40:47.751Z,8.17
2018-08-19T15:43:17.286Z,7.87
2018-08-19T15:45:46.825Z,7.37
2018-08-19T15:48:16.563Z,8.20
2018-08-19T15:50:45.868Z,7.43
2018-08-19T15:53:17.994Z,7.47
2018-08-19T15:55:47.866Z,7.43
2018-08-19T15:58:17.542Z,7.20
2018-08-19T16:00:47.117Z,7.50
2018-08-19T16:03:16.834Z,7.47
2018-08-19T16:05:46.313Z,7.10
2018-08-19T16:08:15.670Z,7.33
2018-08-19T16:10:45.190Z,6.80
2018-08-19T16:13:14.688Z,8.33
2018-08-19T16:15:44.079Z,7.20
2018-08-19T16:18:13.541Z,7.47
2018-08-19T16:20:49.648Z,7.90
2018-08-19T16:23:19.028Z,8.00
2018-08-19T16:25:48.428Z,7.80
2018-08-19T16:28:18.165Z,7.30
2018-08-19T16:30:48.637Z,6.93
2018-08-19T16:33:17.938Z,7.80
2018-08-19T16:35:47.727Z,7.97
2018-08-19T16:38:17.572Z,7.07
2018-08-19T16:40:47.254Z,8.10
2018-08-19T16:43:17.013Z,7.10
2018-08-19T16:45:46.591Z,7.10
2018-08-19T16:48:16.176Z,8.33
2018-08-19T16:50:45.696Z,7.10
2018-08-19T16:53:15.665Z,7.90
2018-08-19T16:55:45.441Z,8.40
2018-08-19T16:58:14.853Z,7.93
2018-08-19T17:00:44.382Z,8.00
2018-08-19T17:03:27.412Z,8.10
2018-08-19T17:05:56.995Z,7.97
2018-08-19T17:08:26.446Z,7.00
2018-08-19T17:10:55.862Z,7.93
2018-08-19T17:13:25.356Z,7.90
2018-08-19T17:15:54.833Z,8.30
2018-08-19T17:18:24.216Z,7.93
2018-08-19T17:20:53.936Z,7.57
2018-08-19T17:23:24.351Z,6.90
2018-08-19T17:25:53.923Z,7.57
2018-08-19T17:28:24.690Z,7.87
2018-08-19T17:30:54.938Z,7.73
2018-08-19T17:33:27.038Z,8.07
2018-08-19T17:35:56.610Z,7.80
2018-08-19T17:38:31.738Z,7.33
2018-08-19T17:41:01.604Z,7.10
2018-08-19T17:43:41.297Z,8.07
2018-08-19T17:46:12.544Z,8.00
2018-08-19T17:48:42.590Z,6.77
2018-08-19T17:51:25.032Z,7.50
2018-08-19T17:53:54.364Z,6.90
2018-08-19T17:56:23.812Z,7.80
2018-08-19T17:58:53.417Z,6.80
2018-08-19T18:01:23.039Z,7.00
2018-08-19T18:03:52.628Z,7.43
2018-08-19T18:06:22.076Z,7.00
2018-08-19T18:08:53.385Z,7.80
2018-08-19T18:11:22.946Z,7.23
2018-08-19T18:13:52.749Z,6.80
2018-08-19T18:16:22.101Z,7.10
2018-08-19T18:18:59.715Z,7.03
2018-08-19T18:21:29.838Z,7.00
2018-08-19T18:23:59.193Z,6.87
2018-08-19T18:26:29.049Z,6.80
2018-08-19T18:28:58.397Z,7.80
2018-08-19T18:31:27.743Z,6.40
2018-08-19T18:34:02.949Z,7.83
2018-08-19T18:36:33.844Z,7.13
2018-08-19T18:39:04.767Z,6.70
2018-08-19T18:41:35.217Z,6.60
2018-08-19T18:44:06.126Z,7.37
2018-08-19T18:46:39.301Z,6.90
2018-08-19T18:49:14.900Z,7.37
2018-08-19T18:51:47.790Z,7.60
2018-08-19T18:54:24.159Z,7.07
2018-08-19T18:56:53.644Z,7.50
2018-08-19T18:59:22.925Z,7.73
2018-08-19T19:01:57.521Z,7.73
2018-08-19T19:04:27.207Z,7.80
2018-08-19T19:06:56.545Z,7.57
2018-08-19T19:09:27.622Z,8.00
2018-08-19T19:12:01.658Z,7.53
2018-08-19T19:14:30.891Z,8.27
2018-08-19T19:17:00.085Z,7.97
2018-08-19T19:19:37.800Z,7.80
2018-08-19T19:22:07.759Z,7.97
2018-08-19T19:24:39.021Z,7.50
2018-08-19T19:27:08.939Z,7.40
2018-08-19T19:29:38.205Z,7.53
2018-08-19T19:32:16.222Z,8.00
2018-08-19T19:34:45.591Z,7.70
2018-08-19T19:37:15.330Z,7.73
2018-08-19T19:39:44.707Z,7.50
2018-08-19T19:42:14.100Z,7.33
2018-08-19T19:44:43.851Z,8.30
2018-08-19T19:47:13.186Z,7.40
2018-08-19T19:49:49.667Z,8.30
2018-08-19T19:52:18.987Z,7.50
2018-08-19T19:54:49.703Z,8.73
2018-08-19T19:57:18.968Z,7.50
2018-08-19T19:59:48.170Z,7.90
2018-08-19T20:08:05.478Z,7.57
2018-08-19T20:10:35.270Z,7.07
2018-08-19T20:13:04.632Z,7.70
2018-08-19T20:15:34.202Z,7.33
2018-08-19T20:18:03.873Z,7.70
2018-08-19T20:20:33.429Z,7.47
2018-08-19T20:23:10.593Z,7.87
2018-08-19T20:25:40.287Z,7.20
2018-08-19T20:28:09.919Z,7.00
2018-08-19T20:30:40.444Z,7.40
2018-08-19T20:33:19.552Z,8.90
2018-08-19T20:35:49.337Z,7.53
2018-08-19T20:38:20.340Z,6.87
2018-08-19T20:40:50.734Z,7.03
2018-08-19T20:43:21.842Z,6.90
2018-08-19T20:45:51.811Z,6.43
2018-08-19T20:48:23.043Z,7.00
2018-08-19T20:50:55.298Z,7.33
2018-08-19T20:53:40.344Z,6.87
2018-08-19T20:56:11.383Z,6.47
2018-08-19T20:58:41.304Z,6.40
2018-08-19T21:01:29.269Z,7.60
2018-08-19T21:03:59.583Z,6.30
2018-08-19T21:06:29.938Z,7.03
2018-08-19T21:08:59.135Z,7.40
2018-08-19T21:11:28.753Z,7.17
2018-08-19T21:13:58.046Z,7.60
2018-08-19T21:16:27.478Z,7.23
2018-08-19T21:18:56.832Z,7.60
2018-08-19T21:21:26.666Z,7.10
2018-08-19T21:23:55.896Z,7.27
2018-08-19T21:26:25.170Z,7.77
2018-08-19T21:29:00.664Z,6.80
2018-08-19T21:31:30.046Z,6.80
2018-08-19T21:33:59.268Z,7.30
2018-08-19T21:36:38.169Z,7.70
2018-08-19T21:39:08.446Z,6.70
2018-08-19T21:41:48.142Z,7.70
2018-08-19T21:44:18.104Z,7.80
2018-08-19T21:46:47.296Z,7.57
2018-08-19T21:49:16.978Z,7.53
2018-08-19T21:51:46.384Z,8.23
2018-08-19T21:54:16.983Z,8.00
2018-08-19T21:56:46.237Z,7.27
2018-08-19T21:59:20.685Z,7.63
2018-08-19T22:01:56.948Z,8.67
2018-08-19T22:04:26.540Z,7.53
2018-08-19T22:06:56.143Z,8.23
2018-08-19T22:09:34.596Z,8.67
2018-08-19T22:12:04.392Z,8.07
2018-08-19T22:14:34.033Z,8.40
2018-08-19T22:17:08.434Z,8.70
2018-08-19T22:19:38.111Z,9.27
2018-08-19T22:22:09.399Z,8.60
2018-08-19T22:24:38.750Z,9.37
2018-08-19T22:27:12.201Z,9.47
2018-08-19T22:29:42.233Z,8.67
2018-08-19T22:32:11.564Z,9.00
2018-08-19T22:34:40.926Z,9.10
2018-08-19T22:37:10.516Z,9.33
2018-08-19T22:39:39.829Z,9.23
2018-08-19T22:42:09.132Z,9.80
2018-08-19T22:44:38.617Z,8.73
2018-08-19T22:47:07.975Z,9.07
2018-08-19T22:49:37.325Z,9.50
2018-08-19T22:52:22.898Z,9.27
2018-08-19T22:54:54.534Z,8.50
2018-08-19T22:57:23.875Z,9.53
2018-08-19T22:59:53.136Z,8.40
2018-08-19T23:02:22.633Z,8.83
2018-08-19T23:04:51.885Z,8.83
2018-08-19T23:07:21.618Z,8.90
2018-08-19T23:09:50.822Z,8.90
2018-08-19T23:12:20.233Z,9.83
2018-08-19T23:15:00.833Z,9.23
2018-08-19T23:17:30.120Z,9.90
2018-08-19T23:19:59.298Z,9.67
2018-08-19T23:22:30.045Z,9.57
2018-08-19T23:24:59.397Z,9.37
2018-08-19T23:27:28.628Z,10.90
2018-08-19T23:29:58.162Z,9.07
2018-08-19T23:32:27.337Z,10.23
2018-08-19T23:34:56.991Z,9.53
2018-08-19T23:37:26.260Z,9.93
2018-08-19T23:39:55.759Z,10.60
2018-08-19T23:42:25.126Z,10.30
2018-08-19T23:44:54.367Z,10.23
2018-08-19T23:47:23.556Z,10.60
2018-08-19T23:49:52.738Z,9.83
2018-08-19T23:52:23.474Z,9.80
2018-08-19T23:54:52.619Z,11.10
2018-08-19T23:57:21.762Z,9.73
2018-08-19T23:59:52.704Z,10.50
